createdAt,value
2023-06-17T00:00:40.464Z,16.65
2023-06-17T00:03:09.240Z,16.63
2023-06-17T00:05:37.892Z,16.13
2023-06-17T00:08:06.895Z,16.23
2023-06-17T00:10:35.694Z,15.95
2023-06-17T00:13:10.001Z,17.65
2023-06-17T00:15:38.983Z,20.05
2023-06-17T00:18:08.195Z,19.20
2023-06-17T00:20:38.480Z,18.90
2023-06-17T00:23:10.467Z,19.85
2023-06-17T00:25:39.158Z,22.20
2023-06-17T00:28:08.190Z,23.80
2023-06-17T00:30:36.643Z,21.90
2023-06-17T00:33:05.314Z,14.00
2023-06-17T00:35:35.946Z,13.10
2023-06-17T00:38:04.337Z,11.15
2023-06-17T00:40:32.900Z,10.30
2023-06-17T00:43:01.918Z,10.95
2023-06-17T00:45:30.351Z,10.35
2023-06-17T00:48:01.499Z,11.63
2023-06-17T00:50:31.140Z,9.55
2023-06-17T00:52:59.692Z,8.07
2023-06-17T00:55:29.380Z,8.10
2023-06-17T00:57:59.701Z,8.15
2023-06-17T01:00:28.474Z,8.43
2023-06-17T01:02:58.853Z,7.95
2023-06-17T01:05:30.322Z,8.38
2023-06-17T01:08:16.311Z,7.57
2023-06-17T01:11:01.036Z,8.75
2023-06-17T01:13:30.661Z,7.68
2023-06-17T01:16:02.334Z,7.70
2023-06-17T01:18:33.999Z,7.53
2023-06-17T01:21:05.651Z,12.20
2023-06-17T01:23:37.126Z,12.70
2023-06-17T01:26:06.399Z,13.23
2023-06-17T01:28:39.289Z,11.10
2023-06-17T01:31:10.181Z,12.63
2023-06-17T01:33:40.643Z,10.90
2023-06-17T01:36:30.825Z,10.82
2023-06-17T01:39:05.734Z,10.10
2023-06-17T01:41:48.443Z,11.30
2023-06-17T01:44:18.621Z,12.95
2023-06-17T01:46:47.196Z,12.98
2023-06-17T01:49:16.030Z,13.88
2023-06-17T01:51:47.693Z,15.02
2023-06-17T01:54:16.253Z,14.10
2023-06-17T01:56:44.657Z,14.10
2023-06-17T01:59:13.259Z,14.75
2023-06-17T02:01:42.271Z,13.85
2023-06-17T02:04:10.810Z,14.25
2023-06-17T02:06:39.871Z,9.77
2023-06-17T02:09:09.214Z,7.18
2023-06-17T02:11:38.177Z,7.18
2023-06-17T02:14:08.036Z,5.97
2023-06-17T02:16:44.503Z,5.97
2023-06-17T02:19:15.191Z,6.18
2023-06-17T02:21:44.979Z,6.18
2023-06-17T02:24:13.779Z,5.80
2023-06-17T02:26:46.350Z,5.93
2023-06-17T02:29:14.735Z,5.25
2023-06-17T02:31:43.444Z,5.28
2023-06-17T02:34:12.601Z,6.05
2023-06-17T02:36:41.355Z,6.38
2023-06-17T02:39:10.215Z,6.97
2023-06-17T02:41:39.138Z,7.50
2023-06-17T02:44:07.934Z,13.15
2023-06-17T02:46:36.519Z,12.40
2023-06-17T02:49:05.994Z,12.50
2023-06-17T02:51:34.500Z,10.52
2023-06-17T02:54:03.066Z,11.77
2023-06-17T02:56:32.407Z,9.40
2023-06-17T02:59:01.049Z,10.18
2023-06-17T03:01:30.858Z,10.10
2023-06-17T03:04:03.951Z,8.70
2023-06-17T03:06:36.087Z,8.95
2023-06-17T03:09:05.730Z,9.48
2023-06-17T03:11:34.188Z,8.35
2023-06-17T03:14:02.579Z,9.63
2023-06-17T03:16:36.248Z,10.23
2023-06-17T03:19:04.651Z,8.75
2023-06-17T03:21:33.024Z,7.45
2023-06-17T03:24:01.836Z,7.13
2023-06-17T03:26:30.327Z,6.35
2023-06-17T03:28:58.637Z,6.20
2023-06-17T03:31:27.509Z,6.80
2023-06-17T03:33:56.091Z,6.57
2023-06-17T03:36:31.028Z,6.00
2023-06-17T03:38:59.756Z,6.97
2023-06-17T03:41:30.972Z,5.97
2023-06-17T03:46:28.109Z,4.55
2023-06-17T03:48:56.468Z,5.38
2023-06-17T03:51:25.012Z,5.32
2023-06-17T03:53:53.449Z,6.75
2023-06-17T03:56:22.057Z,6.32
2023-06-17T03:58:50.606Z,6.40
2023-06-17T04:01:19.157Z,6.15
2023-06-17T04:03:47.688Z,8.27
2023-06-17T04:06:17.764Z,8.77
2023-06-17T04:08:46.551Z,9.68
2023-06-17T04:11:14.907Z,10.00
2023-06-17T04:13:43.666Z,9.40
2023-06-17T04:16:13.145Z,9.93
2023-06-17T04:18:42.461Z,7.68
2023-06-17T04:21:11.670Z,7.97
2023-06-17T04:23:40.023Z,9.50
2023-06-17T04:26:08.754Z,9.68
2023-06-17T04:28:37.355Z,9.50
2023-06-17T04:31:05.743Z,9.88
2023-06-17T04:33:34.604Z,10.13
2023-06-17T04:36:10.255Z,8.38
2023-06-17T04:38:44.443Z,8.82
2023-06-17T04:41:13.975Z,8.88
2023-06-17T04:43:42.389Z,9.15
2023-06-17T04:46:10.908Z,9.35
2023-06-17T04:48:40.486Z,8.48
2023-06-17T04:51:08.886Z,8.65
2023-06-17T04:53:37.441Z,7.68
2023-06-17T04:56:07.098Z,7.82
2023-06-17T04:58:38.636Z,8.88
2023-06-17T05:01:06.980Z,8.13
2023-06-17T05:03:35.353Z,8.02
2023-06-17T05:06:04.209Z,10.40
2023-06-17T05:08:32.656Z,9.65
2023-06-17T05:11:01.213Z,9.65
2023-06-17T05:13:29.538Z,9.60
2023-06-17T05:15:57.903Z,11.25
2023-06-17T05:18:26.877Z,11.20
2023-06-17T05:20:55.189Z,10.00
2023-06-17T05:23:23.535Z,11.68
2023-06-17T05:25:52.355Z,12.20
2023-06-17T05:28:20.788Z,11.38
2023-06-17T05:30:49.153Z,12.68
2023-06-17T05:33:17.736Z,12.68
2023-06-17T05:35:46.193Z,13.23
2023-06-17T05:38:14.546Z,12.40
2023-06-17T05:40:43.267Z,13.32
2023-06-17T05:43:11.609Z,14.00
2023-06-17T05:45:40.014Z,13.20
2023-06-17T05:48:08.856Z,14.07
2023-06-17T05:50:37.381Z,14.10
2023-06-17T05:53:05.885Z,14.73
2023-06-17T05:55:34.758Z,16.02
2023-06-17T05:58:03.478Z,17.23
2023-06-17T06:00:31.913Z,17.50
2023-06-17T06:03:00.867Z,18.08
2023-06-17T06:05:29.503Z,17.98
2023-06-17T06:07:57.976Z,17.85
2023-06-17T06:10:29.941Z,16.67
2023-06-17T06:12:58.283Z,17.63
2023-06-17T06:15:27.721Z,17.25
2023-06-17T06:17:56.787Z,18.80
2023-06-17T06:20:25.428Z,19.77
2023-06-17T06:22:54.048Z,20.38
2023-06-17T06:25:23.080Z,18.85
2023-06-17T06:27:54.851Z,20.52
2023-06-17T06:30:23.517Z,19.27
2023-06-17T06:32:52.545Z,22.70
2023-06-17T06:35:20.955Z,21.67
2023-06-17T06:37:53.665Z,23.55
2023-06-17T06:40:23.107Z,26.02
2023-06-17T06:42:52.417Z,30.52
2023-06-17T06:45:20.935Z,29.48
2023-06-17T06:47:49.545Z,32.00
2023-06-17T06:50:18.109Z,35.72
2023-06-17T06:52:47.673Z,37.03
2023-06-17T06:55:16.711Z,40.28
2023-06-17T06:57:45.046Z,40.20
2023-06-17T07:00:14.362Z,40.80
2023-06-17T07:02:42.727Z,35.70
2023-06-17T07:05:11.719Z,36.45
2023-06-17T07:07:40.552Z,36.28
2023-06-17T07:10:09.400Z,39.35
2023-06-17T07:12:38.202Z,42.75
2023-06-17T07:15:07.398Z,42.83
2023-06-17T07:17:36.167Z,42.28
2023-06-17T07:20:07.398Z,43.38
2023-06-17T07:22:36.251Z,42.88
2023-06-17T07:25:05.056Z,42.17
2023-06-17T07:27:33.449Z,31.48
2023-06-17T07:30:02.565Z,23.02
2023-06-17T07:32:31.293Z,18.48
2023-06-17T07:35:08.652Z,18.27
2023-06-17T07:40:07.682Z,15.43
2023-06-17T07:42:36.930Z,19.73
2023-06-17T07:45:06.379Z,16.90
2023-06-17T07:47:35.389Z,19.25
2023-06-17T07:50:08.152Z,17.30
2023-06-17T07:52:37.445Z,16.00
2023-06-17T07:55:11.640Z,16.25
2023-06-17T07:57:40.116Z,16.88
2023-06-17T08:00:12.455Z,13.80
2023-06-17T08:02:44.816Z,12.98
2023-06-17T08:05:13.488Z,11.05
2023-06-17T08:07:42.008Z,12.25
2023-06-17T08:10:11.238Z,12.25
2023-06-17T08:12:39.881Z,12.40
2023-06-17T08:15:09.042Z,11.48
2023-06-17T08:17:37.480Z,11.40
2023-06-17T08:20:06.586Z,11.18
2023-06-17T08:22:35.483Z,10.98
2023-06-17T08:25:03.802Z,12.25
2023-06-17T08:27:32.655Z,13.43
2023-06-17T08:30:01.369Z,13.32
2023-06-17T08:32:29.850Z,11.95
2023-06-17T08:34:58.911Z,11.95
2023-06-17T08:37:27.413Z,11.02
2023-06-17T08:39:55.747Z,9.95
2023-06-17T08:42:24.518Z,10.15
2023-06-17T08:44:54.002Z,10.68
2023-06-17T08:47:23.435Z,11.40
2023-06-17T08:49:52.420Z,9.88
2023-06-17T08:52:21.171Z,9.82
2023-06-17T08:54:50.799Z,10.35
2023-06-17T08:57:21.026Z,10.13
2023-06-17T08:59:49.487Z,9.73
2023-06-17T09:02:18.379Z,9.68
2023-06-17T09:04:47.248Z,9.32
2023-06-17T09:07:15.624Z,10.20
2023-06-17T09:09:52.702Z,8.02
2023-06-17T09:14:48.929Z,7.63
2023-06-17T09:17:34.199Z,7.43
2023-06-17T09:20:16.631Z,6.57
2023-06-17T09:22:47.289Z,6.43
2023-06-17T09:25:18.017Z,7.13
2023-06-17T09:30:28.392Z,6.60
2023-06-17T09:32:57.338Z,6.43
2023-06-17T09:35:27.780Z,6.18
2023-06-17T09:38:03.425Z,6.10
2023-06-17T09:40:35.696Z,6.32
2023-06-17T09:43:26.930Z,7.63
2023-06-17T09:46:17.235Z,5.28
2023-06-17T09:48:59.310Z,6.55
2023-06-17T09:51:29.772Z,4.90
2023-06-17T09:53:58.307Z,5.20
2023-06-17T09:56:27.760Z,4.47
2023-06-17T09:58:57.873Z,4.82
2023-06-17T10:01:32.838Z,4.35
2023-06-17T10:04:05.257Z,4.43
2023-06-17T10:06:38.871Z,6.18
2023-06-17T10:09:10.323Z,4.72
2023-06-17T10:11:41.642Z,4.28
2023-06-17T10:14:15.007Z,5.05
2023-06-17T10:16:49.743Z,4.40
2023-06-17T10:19:25.455Z,5.85
2023-06-17T10:21:57.077Z,6.68
2023-06-17T10:24:28.494Z,5.78
2023-06-17T10:26:57.053Z,5.20
2023-06-17T10:29:25.489Z,6.15
2023-06-17T10:31:54.272Z,6.13
2023-06-17T10:34:25.639Z,5.82
2023-06-17T10:37:01.042Z,5.78
2023-06-17T10:39:29.597Z,4.32
2023-06-17T10:42:01.746Z,4.40
2023-06-17T10:44:42.687Z,5.47
2023-06-17T10:47:25.118Z,4.55
2023-06-17T10:49:57.537Z,5.03
2023-06-17T10:52:29.336Z,4.07
2023-06-17T10:55:01.493Z,3.88
2023-06-17T10:57:43.549Z,3.58
2023-06-17T11:00:14.067Z,3.17
2023-06-17T11:02:42.799Z,3.13
2023-06-17T11:05:11.666Z,3.47
2023-06-17T11:07:40.522Z,3.40
2023-06-17T11:10:09.581Z,3.30
2023-06-17T11:12:39.206Z,3.25
2023-06-17T11:15:11.134Z,3.20
2023-06-17T11:17:39.575Z,3.33
2023-06-17T11:20:09.886Z,3.70
2023-06-17T11:22:42.137Z,3.50
2023-06-17T11:25:12.820Z,2.83
2023-06-17T11:30:12.489Z,8.45
2023-06-17T11:32:43.878Z,3.63
2023-06-17T11:35:12.560Z,4.20
2023-06-17T11:37:41.361Z,2.65
2023-06-17T11:40:14.286Z,3.70
2023-06-17T11:42:43.092Z,3.35
2023-06-17T11:45:11.897Z,3.33
2023-06-17T11:47:40.282Z,3.45
2023-06-17T11:50:10.245Z,3.58
2023-06-17T11:52:38.950Z,3.20
2023-06-17T11:55:07.725Z,2.85
2023-06-17T11:57:36.597Z,2.97
2023-06-17T12:00:11.580Z,2.90
2023-06-17T12:02:41.557Z,3.30
2023-06-17T12:05:12.243Z,2.80
2023-06-17T12:07:44.644Z,3.38
2023-06-17T12:10:15.996Z,3.08
2023-06-17T12:12:45.275Z,3.28
2023-06-17T12:15:32.361Z,3.10
2023-06-17T12:18:15.960Z,14.23
2023-06-17T12:20:54.905Z,3.03
2023-06-17T12:23:23.482Z,3.70
2023-06-17T12:25:51.989Z,4.40
2023-06-17T12:28:25.229Z,3.38
2023-06-17T12:31:10.569Z,4.50
2023-06-17T12:33:43.481Z,5.25
2023-06-17T12:36:12.119Z,4.10
2023-06-17T12:38:41.527Z,2.90
2023-06-17T12:41:10.924Z,3.22
2023-06-17T12:43:40.990Z,3.00
2023-06-17T12:46:10.563Z,3.03
2023-06-17T12:48:39.658Z,3.38
2023-06-17T12:51:08.998Z,3.45
2023-06-17T12:53:37.422Z,2.97
2023-06-17T12:56:06.466Z,2.90
2023-06-17T12:58:34.825Z,3.15
2023-06-17T13:01:03.345Z,2.53
2023-06-17T13:03:32.438Z,2.38
2023-06-17T13:06:00.880Z,2.95
2023-06-17T13:08:29.340Z,2.78
2023-06-17T13:10:58.764Z,2.97
2023-06-17T13:13:29.099Z,2.90
2023-06-17T13:15:57.653Z,3.17
2023-06-17T13:18:26.453Z,2.67
2023-06-17T13:20:55.010Z,2.70
2023-06-17T13:23:23.649Z,3.28
2023-06-17T13:25:52.266Z,2.60
2023-06-17T13:28:21.830Z,2.40
2023-06-17T13:30:51.913Z,3.15
2023-06-17T13:33:20.640Z,3.20
2023-06-17T13:35:49.135Z,3.42
2023-06-17T13:38:17.581Z,3.30
2023-06-17T13:40:46.440Z,3.63
2023-06-17T13:43:14.938Z,2.88
2023-06-17T13:45:43.720Z,3.38
2023-06-17T13:48:12.579Z,3.65
2023-06-17T13:50:40.995Z,3.10
2023-06-17T13:53:09.490Z,3.72
2023-06-17T13:55:38.946Z,3.20
2023-06-17T13:58:07.651Z,3.65
2023-06-17T14:00:36.198Z,4.80
2023-06-17T14:03:05.119Z,3.03
2023-06-17T14:05:33.640Z,3.38
2023-06-17T14:08:02.507Z,3.60
2023-06-17T14:10:31.092Z,4.13
2023-06-17T14:12:59.635Z,3.58
2023-06-17T14:15:27.993Z,4.28
2023-06-17T14:17:57.202Z,4.25
2023-06-17T14:20:25.597Z,5.07
2023-06-17T14:22:58.727Z,6.03
2023-06-17T14:25:27.464Z,5.75
2023-06-17T14:27:55.978Z,5.70
2023-06-17T14:30:25.075Z,5.60
2023-06-17T14:32:53.728Z,5.78
2023-06-17T14:35:22.457Z,6.50
2023-06-17T14:37:51.925Z,6.78
2023-06-17T14:40:21.103Z,7.15
2023-06-17T14:42:49.713Z,6.35
2023-06-17T14:45:19.284Z,5.72
2023-06-17T14:47:47.930Z,4.65
2023-06-17T14:50:16.921Z,4.60
2023-06-17T14:52:49.560Z,4.18
2023-06-17T14:55:18.225Z,3.65
2023-06-17T14:57:46.607Z,3.75
2023-06-17T15:00:15.795Z,3.60
2023-06-17T15:02:51.189Z,3.03
2023-06-17T15:05:20.593Z,3.40
2023-06-17T15:07:50.863Z,3.10
2023-06-17T15:10:19.962Z,3.17
2023-06-17T15:12:49.113Z,3.47
2023-06-17T15:15:21.153Z,3.50
2023-06-17T15:17:50.329Z,3.88
2023-06-17T15:20:20.823Z,3.97
2023-06-17T15:25:18.527Z,4.20
2023-06-17T15:27:47.107Z,5.97
2023-06-17T15:30:15.817Z,5.80
2023-06-17T15:32:44.407Z,7.13
2023-06-17T15:35:16.194Z,13.02
2023-06-17T15:37:44.701Z,26.02
2023-06-17T15:40:14.517Z,50.60
2023-06-17T15:42:45.115Z,70.97
2023-06-17T15:45:14.109Z,36.42
2023-06-17T15:47:43.282Z,29.55
2023-06-17T15:50:12.697Z,23.83
2023-06-17T15:52:41.262Z,21.25
2023-06-17T15:55:10.237Z,21.75
2023-06-17T15:57:38.702Z,28.98
2023-06-17T16:00:14.103Z,43.20
2023-06-17T16:02:45.017Z,35.67
2023-06-17T16:05:15.771Z,26.58
2023-06-17T16:07:44.253Z,22.13
2023-06-17T16:10:13.230Z,20.20
2023-06-17T16:12:42.912Z,20.27
2023-06-17T16:15:17.258Z,21.38
2023-06-17T16:17:45.836Z,22.55
2023-06-17T16:20:14.747Z,23.45
2023-06-17T16:22:43.175Z,26.58
2023-06-17T16:25:12.041Z,22.65
2023-06-17T16:27:40.532Z,22.55
2023-06-17T16:30:10.604Z,31.00
2023-06-17T16:32:39.953Z,31.45
2023-06-17T16:35:08.958Z,30.30
2023-06-17T16:37:37.495Z,21.10
2023-06-17T16:40:07.446Z,27.40
2023-06-17T16:42:37.736Z,27.33
2023-06-17T16:45:06.822Z,24.42
2023-06-17T16:47:35.624Z,26.50
2023-06-17T16:50:04.125Z,23.48
2023-06-17T16:52:32.612Z,24.35
2023-06-17T16:55:01.435Z,25.27
2023-06-17T16:57:29.886Z,24.92
2023-06-17T16:59:58.213Z,24.92
2023-06-17T17:02:27.626Z,25.40
2023-06-17T17:04:59.990Z,23.85
2023-06-17T17:07:28.463Z,24.55
2023-06-17T17:09:57.138Z,31.83
2023-06-17T17:12:26.361Z,22.08
2023-06-17T17:14:58.202Z,23.83
2023-06-17T17:17:28.035Z,29.90
2023-06-17T17:19:57.853Z,22.40
2023-06-17T17:22:27.266Z,24.15
2023-06-17T17:24:56.029Z,22.73
2023-06-17T17:27:27.255Z,22.10
2023-06-17T17:30:03.105Z,22.40
2023-06-17T17:32:32.477Z,22.73
2023-06-17T17:35:13.287Z,22.98
2023-06-17T17:38:11.915Z,22.92
2023-06-17T17:41:03.927Z,22.92
2023-06-17T17:43:59.477Z,22.15
2023-06-17T17:46:29.146Z,23.13
2023-06-17T17:48:57.788Z,22.30
2023-06-17T17:51:29.653Z,23.27
2023-06-17T17:53:58.294Z,23.48
2023-06-17T17:56:28.616Z,23.23
2023-06-17T17:58:57.486Z,21.17
2023-06-17T18:01:26.325Z,23.08
2023-06-17T18:03:54.986Z,24.65
2023-06-17T18:06:23.653Z,25.38
2023-06-17T18:08:53.113Z,24.38
2023-06-17T18:11:22.369Z,26.70
2023-06-17T18:13:54.869Z,24.10
2023-06-17T18:16:24.705Z,24.77
2023-06-17T18:18:57.617Z,27.45
2023-06-17T18:21:30.207Z,26.20
2023-06-17T18:23:59.405Z,27.58
2023-06-17T18:26:32.876Z,26.65
2023-06-17T18:29:02.293Z,25.90
2023-06-17T18:31:32.243Z,27.15
2023-06-17T18:34:01.020Z,27.50
2023-06-17T18:36:29.370Z,28.05
2023-06-17T18:38:58.159Z,28.77
2023-06-17T18:41:28.172Z,27.27
2023-06-17T18:43:56.678Z,27.80
2023-06-17T18:46:25.365Z,27.08
2023-06-17T18:48:54.822Z,26.77
2023-06-17T18:51:23.319Z,28.52
2023-06-17T18:53:52.037Z,27.05
2023-06-17T18:56:20.844Z,27.50
2023-06-17T18:58:49.369Z,25.52
2023-06-17T19:01:17.881Z,25.25
2023-06-17T19:03:46.754Z,26.20
2023-06-17T19:06:17.374Z,26.52
2023-06-17T19:08:45.866Z,25.77
2023-06-17T19:11:17.393Z,23.83
2023-06-17T19:13:46.184Z,26.95
2023-06-17T19:16:15.222Z,27.52
2023-06-17T19:18:44.032Z,26.65
2023-06-17T19:21:12.725Z,25.45
2023-06-17T19:23:41.322Z,26.48
2023-06-17T19:26:10.151Z,26.15
2023-06-17T19:28:38.701Z,25.85
2023-06-17T19:31:07.325Z,27.17
2023-06-17T19:33:36.548Z,25.55
2023-06-17T19:36:05.157Z,26.58
2023-06-17T19:38:34.296Z,27.33
2023-06-17T19:41:04.936Z,28.25
2023-06-17T19:43:35.571Z,26.52
2023-06-17T19:46:06.359Z,28.13
2023-06-17T19:48:34.760Z,27.98
2023-06-17T19:51:03.533Z,25.83
2023-06-17T19:53:32.659Z,27.40
2023-06-17T19:56:01.098Z,27.05
2023-06-17T19:58:31.368Z,26.73
2023-06-17T20:01:03.604Z,25.38
2023-06-17T20:03:35.650Z,25.02
2023-06-17T20:06:04.438Z,25.15
2023-06-17T20:08:33.192Z,24.70
2023-06-17T20:11:03.214Z,26.25
2023-06-17T20:13:32.111Z,26.88
2023-06-17T20:16:02.912Z,24.80
2023-06-17T20:18:31.367Z,23.73
2023-06-17T20:21:00.399Z,23.63
2023-06-17T20:23:31.160Z,23.58
2023-06-17T20:25:59.536Z,24.23
2023-06-17T20:28:28.387Z,24.55
2023-06-17T20:30:57.421Z,24.27
2023-06-17T20:33:26.051Z,23.23
2023-06-17T20:35:58.779Z,24.13
2023-06-17T20:38:27.154Z,23.90
2023-06-17T20:40:56.034Z,24.70
2023-06-17T20:43:24.671Z,24.63
2023-06-17T20:45:54.051Z,24.00
2023-06-17T20:48:22.568Z,24.60
2023-06-17T20:50:51.443Z,24.35
2023-06-17T20:53:19.933Z,24.60
2023-06-17T20:55:48.705Z,26.27
2023-06-17T20:58:17.950Z,25.23
2023-06-17T21:00:46.879Z,26.40
2023-06-17T21:03:19.989Z,26.30
2023-06-17T21:05:48.627Z,26.38
2023-06-17T21:08:17.501Z,24.95
2023-06-17T21:10:46.475Z,24.90
2023-06-17T21:13:14.993Z,25.23
2023-06-17T21:15:43.510Z,24.23
2023-06-17T21:18:12.396Z,23.10
2023-06-17T21:20:40.753Z,22.65
2023-06-17T21:23:09.115Z,23.27
2023-06-17T21:25:37.801Z,26.38
2023-06-17T21:28:06.285Z,24.33
2023-06-17T21:30:34.641Z,24.95
2023-06-17T21:33:03.450Z,22.70
2023-06-17T21:35:31.918Z,22.48
2023-06-17T21:38:03.382Z,22.17
2023-06-17T21:40:38.264Z,22.13
2023-06-17T21:43:06.666Z,22.75
2023-06-17T21:45:35.072Z,21.33
2023-06-17T21:48:03.894Z,22.08
2023-06-17T21:50:32.450Z,20.67
2023-06-17T21:53:01.090Z,20.73
2023-06-17T21:55:30.098Z,21.58
2023-06-17T21:57:58.625Z,19.75
2023-06-17T22:00:29.149Z,21.45
2023-06-17T22:02:57.985Z,22.00
2023-06-17T22:05:26.627Z,22.38
2023-06-17T22:07:55.004Z,23.35
2023-06-17T22:10:23.788Z,22.15
2023-06-17T22:12:52.858Z,19.10
2023-06-17T22:15:21.317Z,19.08
2023-06-17T22:17:50.121Z,19.35
2023-06-17T22:20:18.561Z,17.60
2023-06-17T22:22:46.969Z,17.85
2023-06-17T22:25:15.880Z,17.00
2023-06-17T22:27:44.409Z,18.38
2023-06-17T22:30:13.104Z,19.30
2023-06-17T22:32:42.093Z,19.98
2023-06-17T22:35:14.069Z,19.02
2023-06-17T22:37:42.564Z,19.95
2023-06-17T22:40:12.052Z,21.40
2023-06-17T22:42:40.604Z,20.45
2023-06-17T22:45:09.508Z,21.88
2023-06-17T22:47:38.338Z,21.33
2023-06-17T22:50:07.454Z,21.38
2023-06-17T22:52:37.202Z,20.50
2023-06-17T22:55:06.879Z,19.77
2023-06-17T22:57:41.981Z,19.30
2023-06-17T23:00:13.042Z,17.00
2023-06-17T23:02:41.718Z,18.42
2023-06-17T23:05:10.505Z,17.33
2023-06-17T23:07:39.260Z,18.20
2023-06-17T23:10:08.036Z,17.08
2023-06-17T23:12:36.516Z,17.00
2023-06-17T23:15:06.485Z,16.25
2023-06-17T23:17:34.933Z,17.30
2023-06-17T23:20:03.400Z,16.98
2023-06-17T23:22:35.535Z,18.05
2023-06-17T23:25:07.564Z,17.40
2023-06-17T23:27:37.127Z,16.88
2023-06-17T23:30:05.861Z,15.55
2023-06-17T23:32:34.350Z,16.35
2023-06-17T23:35:04.079Z,15.48
2023-06-17T23:37:33.752Z,16.20
2023-06-17T23:40:02.194Z,15.07
2023-06-17T23:42:30.888Z,15.45
2023-06-17T23:45:01.355Z,16.20
2023-06-17T23:47:29.838Z,16.73
2023-06-17T23:49:58.696Z,16.02
2023-06-17T23:52:27.027Z,15.63
2023-06-17T23:54:55.440Z,15.68
2023-06-17T23:57:24.069Z,14.65
2023-06-17T23:59:52.410Z,16.05
